createdAt,value
2023-05-19T00:00:04.462Z,1011.8
2023-05-19T00:01:05.466Z,1012.1
2023-05-19T00:02:06.595Z,1012.1
2023-05-19T00:03:07.646Z,1012.2
2023-05-19T00:04:08.458Z,1012.2
2023-05-19T00:05:09.478Z,1012.2
2023-05-19T00:06:10.519Z,1012.1
2023-05-19T00:07:11.482Z,1012.2
2023-05-19T00:08:12.496Z,1012.2
2023-05-19T00:09:13.460Z,1012.2
2023-05-19T00:10:14.557Z,1012.2
2023-05-19T00:11:15.464Z,1012.2
2023-05-19T00:12:16.485Z,1012.2
2023-05-19T00:13:17.466Z,1012.2
2023-05-19T00:14:18.457Z,1012.3
2023-05-19T00:15:19.476Z,1012.2
2023-05-19T00:16:20.480Z,1012.2
2023-05-19T00:17:21.580Z,1012.2
2023-05-19T00:18:22.442Z,1012.2
2023-05-19T00:19:23.526Z,1012.2
2023-05-19T00:20:24.495Z,1012.3
2023-05-19T00:21:25.534Z,1012.3
2023-05-19T00:22:26.497Z,1012.3
2023-05-19T00:23:27.475Z,1012.3
2023-05-19T00:24:28.496Z,1012.3
2023-05-19T00:25:29.547Z,1012.3
2023-05-19T00:26:30.538Z,1012.3
2023-05-19T00:27:31.483Z,1012.3
2023-05-19T00:28:32.456Z,1012.3
2023-05-19T00:29:33.476Z,1012.3
2023-05-19T00:30:34.524Z,1012.3
2023-05-19T00:31:35.505Z,1012.3
2023-05-19T00:32:36.582Z,1012.3
2023-05-19T00:33:37.456Z,1012.3
2023-05-19T00:34:38.524Z,1012.3
2023-05-19T00:35:39.495Z,1012.3
2023-05-19T00:36:40.521Z,1012.3
2023-05-19T00:37:41.476Z,1012.2
2023-05-19T00:38:42.507Z,1012.2
2023-05-19T00:39:43.524Z,1012.2
2023-05-19T00:40:44.540Z,1012.2
2023-05-19T00:41:45.568Z,1012.4
2023-05-19T00:42:46.488Z,1012.3
2023-05-19T00:43:47.523Z,1012.3
2023-05-19T00:44:48.522Z,1012.3
2023-05-19T00:45:49.526Z,1012.3
2023-05-19T00:46:50.547Z,1012.3
2023-05-19T00:47:51.658Z,1012.3
2023-05-19T00:48:52.438Z,1012.3
2023-05-19T00:49:53.510Z,1012.3
2023-05-19T00:50:54.476Z,1012.3
2023-05-19T00:51:55.456Z,1012.3
2023-05-19T00:52:56.558Z,1012.3
2023-05-19T00:53:57.504Z,1012.3
2023-05-19T00:54:58.476Z,1012.4
2023-05-19T00:55:59.477Z,1012.3
2023-05-19T00:57:00.505Z,1012.4
2023-05-19T00:58:01.542Z,1012.4
2023-05-19T00:59:02.485Z,1012.4
2023-05-19T01:00:03.588Z,1012.3
2023-05-19T01:01:05.139Z,1012.3
2023-05-19T01:02:05.540Z,1011.4
2023-05-19T01:03:06.693Z,1012.1
2023-05-19T01:04:07.759Z,1012.3
2023-05-19T01:05:08.494Z,1012.3
2023-05-19T01:06:09.516Z,1012.4
2023-05-19T01:07:10.553Z,1012.3
2023-05-19T01:08:11.521Z,1012.3
2023-05-19T01:09:12.557Z,1012.3
2023-05-19T01:10:13.505Z,1012.3
2023-05-19T01:11:14.507Z,1012.3
2023-05-19T01:12:15.510Z,1011.7
2023-05-19T01:13:16.518Z,1012.1
2023-05-19T01:14:17.565Z,1012.2
2023-05-19T01:15:18.508Z,1012.3
2023-05-19T01:16:19.623Z,1012.3
2023-05-19T01:17:20.525Z,1012.3
2023-05-19T01:18:21.597Z,1012.3
2023-05-19T01:19:22.589Z,1012.3
2023-05-19T01:20:23.527Z,1012.3
2023-05-19T01:21:24.527Z,1012.3
2023-05-19T01:22:25.588Z,1012.3
2023-05-19T01:23:26.499Z,1012.3
2023-05-19T01:24:27.499Z,1012.3
2023-05-19T01:25:28.474Z,1012.3
2023-05-19T01:26:29.557Z,1012.3
2023-05-19T01:27:30.558Z,1012.4
2023-05-19T01:28:31.558Z,1012.3
2023-05-19T01:29:32.506Z,1012.3
2023-05-19T01:30:33.728Z,1012.3
2023-05-19T01:31:34.595Z,1012.3
2023-05-19T01:32:35.620Z,1012.3
2023-05-19T01:37:00.614Z,1012.3
2023-05-19T01:38:01.520Z,1012.3
2023-05-19T01:39:02.475Z,1012.3
2023-05-19T01:40:03.602Z,1012.4
2023-05-19T01:41:04.515Z,1012.3
2023-05-19T01:42:05.604Z,1012.3
2023-05-19T01:43:06.559Z,1012.4
2023-05-19T01:44:07.548Z,1012.4
2023-05-19T01:45:08.527Z,1012.4
2023-05-19T01:46:09.576Z,1012.4
2023-05-19T01:47:10.602Z,1012.4
2023-05-19T01:48:11.593Z,1012.4
2023-05-19T01:49:12.630Z,1012.4
2023-05-19T01:50:13.539Z,1012.4
2023-05-19T01:51:14.541Z,1012.4
2023-05-19T01:52:15.595Z,1012.4
2023-05-19T01:53:16.547Z,1012.4
2023-05-19T01:54:17.519Z,1012.3
2023-05-19T01:55:18.542Z,1012.3
2023-05-19T01:56:19.530Z,1012.4
2023-05-19T01:57:20.585Z,1012.4
2023-05-19T01:58:21.531Z,1012.4
2023-05-19T01:59:22.562Z,1012.3
2023-05-19T02:00:23.554Z,1012.3
2023-05-19T02:01:24.579Z,1011.9
2023-05-19T02:02:25.564Z,1012.2
2023-05-19T02:03:26.568Z,1012.3
2023-05-19T02:04:27.559Z,1012.3
2023-05-19T02:05:28.563Z,1012.3
2023-05-19T02:06:29.561Z,1012.3
2023-05-19T02:07:30.539Z,1012.3
2023-05-19T02:08:31.544Z,1012.3
2023-05-19T02:09:32.522Z,1012.3
2023-05-19T02:10:33.743Z,1012.3
2023-05-19T02:11:34.583Z,1012.3
2023-05-19T02:12:35.602Z,1012.3
2023-05-19T02:13:36.568Z,1012.3
2023-05-19T02:14:37.539Z,1012.3
2023-05-19T02:15:38.615Z,1012.3
2023-05-19T02:16:39.536Z,1012.3
2023-05-19T02:17:40.563Z,1012.3
2023-05-19T02:18:41.594Z,1012.3
2023-05-19T02:19:42.632Z,1012.4
2023-05-19T02:20:43.499Z,1012
2023-05-19T02:21:44.539Z,1012.2
2023-05-19T02:22:45.641Z,1012.3
2023-05-19T02:23:46.538Z,1012.3
2023-05-19T02:24:47.544Z,1012.3
2023-05-19T02:25:48.523Z,1012.4
2023-05-19T02:26:49.534Z,1012.3
2023-05-19T02:27:50.557Z,1012.3
2023-05-19T02:28:51.536Z,1012.3
2023-05-19T02:29:52.557Z,1012.3
2023-05-19T02:31:59.530Z,1012.3
2023-05-19T02:33:00.667Z,1012.3
2023-05-19T02:34:01.580Z,1012.3
2023-05-19T02:35:02.601Z,1012.2
2023-05-19T02:36:03.579Z,1012.2
2023-05-19T02:37:04.536Z,1012.2
2023-05-19T02:38:05.668Z,1012.2
2023-05-19T02:39:06.562Z,1012.3
2023-05-19T02:40:07.612Z,1012.2
2023-05-19T02:41:08.616Z,1012.2
2023-05-19T02:42:09.579Z,1012.2
2023-05-19T02:43:10.561Z,1012.2
2023-05-19T02:44:11.610Z,1012.2
2023-05-19T02:45:12.566Z,1012.2
2023-05-19T02:46:13.652Z,1012.2
2023-05-19T02:47:14.535Z,1012.2
2023-05-19T02:48:15.610Z,1012.2
2023-05-19T02:49:16.580Z,1012.2
2023-05-19T02:50:17.576Z,1012.2
2023-05-19T02:51:18.657Z,1012.1
2023-05-19T02:52:19.655Z,1012.2
2023-05-19T02:53:20.597Z,1012.2
2023-05-19T02:54:21.560Z,1012.2
2023-05-19T02:55:22.535Z,1012.2
2023-05-19T02:56:23.570Z,1012.2
2023-05-19T02:57:24.595Z,1012.2
2023-05-19T02:58:25.638Z,1012.2
2023-05-19T02:59:26.598Z,1011.3
2023-05-19T03:00:27.578Z,1012
2023-05-19T03:01:28.556Z,1012.1
2023-05-19T03:02:29.714Z,1012.1
2023-05-19T03:03:30.646Z,1012
2023-05-19T03:04:32.183Z,1012
2023-05-19T03:05:33.536Z,1012.1
2023-05-19T03:06:34.556Z,1012.1
2023-05-19T03:07:35.567Z,1012.1
2023-05-19T03:08:36.561Z,1012.2
2023-05-19T03:09:37.578Z,1012.1
2023-05-19T03:10:38.559Z,1012.2
2023-05-19T03:11:39.574Z,1012.2
2023-05-19T03:12:40.566Z,1012.2
2023-05-19T03:13:41.560Z,1012.1
2023-05-19T03:14:42.603Z,1012.1
2023-05-19T03:15:43.528Z,1012.2
2023-05-19T03:16:44.658Z,1012.2
2023-05-19T03:17:45.741Z,1012.2
2023-05-19T03:18:46.677Z,1012.2
2023-05-19T03:19:47.636Z,1012.3
2023-05-19T03:20:48.565Z,1012.1
2023-05-19T03:21:49.586Z,1012.1
2023-05-19T03:22:50.561Z,1012.1
2023-05-19T03:23:51.660Z,1012.2
2023-05-19T03:24:52.578Z,1012.2
2023-05-19T03:25:53.578Z,1012.2
2023-05-19T03:26:54.610Z,1012.1
2023-05-19T03:27:56.239Z,1012.1
2023-05-19T03:28:57.620Z,1012.1
2023-05-19T03:29:58.618Z,1012.1
2023-05-19T03:30:59.621Z,1012.1
2023-05-19T03:32:00.596Z,1012.1
2023-05-19T03:33:01.783Z,1012.1
2023-05-19T03:34:02.580Z,1012.1
2023-05-19T03:35:03.590Z,1012.1
2023-05-19T03:36:04.568Z,1012.1
2023-05-19T03:37:05.659Z,1012
2023-05-19T03:38:06.607Z,1012.1
2023-05-19T03:39:07.640Z,1012
2023-05-19T03:40:08.611Z,1012
2023-05-19T03:41:09.579Z,1012
2023-05-19T03:42:10.579Z,1012
2023-05-19T03:43:11.646Z,1012.1
2023-05-19T03:44:12.657Z,1012
2023-05-19T03:45:13.600Z,1012
2023-05-19T03:46:14.638Z,1012
2023-05-19T03:47:15.589Z,1012
2023-05-19T03:48:17.968Z,1012
2023-05-19T03:49:17.591Z,1012
2023-05-19T03:50:18.591Z,1012
2023-05-19T03:51:19.669Z,1012.1
2023-05-19T03:52:20.620Z,1012
2023-05-19T03:53:21.603Z,1012.2
2023-05-19T03:54:22.744Z,1012.1
2023-05-19T03:55:23.579Z,1012.1
2023-05-19T03:56:24.638Z,1012.1
2023-05-19T03:57:25.601Z,1012.1
2023-05-19T03:58:26.636Z,1012
2023-05-19T03:59:27.639Z,1012.1
2023-05-19T04:00:28.640Z,1012
2023-05-19T04:01:29.600Z,1012.1
2023-05-19T04:02:30.683Z,1012
2023-05-19T04:03:31.603Z,1012.1
2023-05-19T04:04:32.674Z,1012.1
2023-05-19T04:05:33.599Z,1012
2023-05-19T04:06:34.640Z,1011.6
2023-05-19T04:07:35.585Z,1012
2023-05-19T04:08:37.141Z,1012.1
2023-05-19T04:09:38.688Z,1012.1
2023-05-19T04:10:39.600Z,1012.1
2023-05-19T04:11:40.603Z,1012.1
2023-05-19T04:12:41.656Z,1012.1
2023-05-19T04:13:42.875Z,1012.1
2023-05-19T04:14:43.602Z,1012.1
2023-05-19T04:15:44.755Z,1012.1
2023-05-19T04:16:45.639Z,1012.2
2023-05-19T04:17:46.654Z,1012.2
2023-05-19T04:18:47.640Z,1012.2
2023-05-19T04:19:48.620Z,1012.2
2023-05-19T04:20:49.676Z,1012.2
2023-05-19T04:21:50.652Z,1012.2
2023-05-19T04:22:51.578Z,1012.1
2023-05-19T04:23:52.622Z,1012.1
2023-05-19T04:24:53.678Z,1012.2
2023-05-19T04:25:54.579Z,1012.2
2023-05-19T04:26:55.621Z,1012.1
2023-05-19T04:27:56.610Z,1012.1
2023-05-19T04:28:57.619Z,1012.1
2023-05-19T04:29:58.606Z,1012.1
2023-05-19T04:30:59.628Z,1012.1
2023-05-19T04:32:00.621Z,1012.2
2023-05-19T04:33:01.647Z,1012.1
2023-05-19T04:34:02.764Z,1012.2
2023-05-19T04:35:03.708Z,1012.2
2023-05-19T04:36:04.621Z,1012.1
2023-05-19T04:37:05.604Z,1012.2
2023-05-19T04:38:06.592Z,1012.1
2023-05-19T04:39:07.627Z,1012.1
2023-05-19T04:40:08.693Z,1012.1
2023-05-19T04:41:09.665Z,1012.1
2023-05-19T04:42:10.879Z,1012.1
2023-05-19T04:43:12.626Z,1012.1
2023-05-19T04:44:13.707Z,1012.1
2023-05-19T04:45:14.644Z,1012.1
2023-05-19T04:46:15.707Z,1012.1
2023-05-19T04:47:16.644Z,1012.2
2023-05-19T04:48:17.634Z,1012.2
2023-05-19T04:49:18.722Z,1012.2
2023-05-19T04:50:19.582Z,1012.2
2023-05-19T04:51:20.711Z,1012.2
2023-05-19T04:52:21.626Z,1012.1
2023-05-19T04:53:22.621Z,1012.1
2023-05-19T04:54:23.698Z,1012.2
2023-05-19T04:55:24.699Z,1012.2
2023-05-19T04:56:25.640Z,1011.6
2023-05-19T04:57:26.689Z,1012.1
2023-05-19T04:58:27.679Z,1012.2
2023-05-19T04:59:28.641Z,1012.2
2023-05-19T05:00:29.672Z,1012.2
2023-05-19T05:01:30.906Z,1012.2
2023-05-19T05:02:31.612Z,1012.2
2023-05-19T05:03:32.669Z,1012.2
2023-05-19T05:04:33.618Z,1012.3
2023-05-19T05:05:34.683Z,1012.3
2023-05-19T05:06:35.689Z,1012.3
2023-05-19T05:07:36.597Z,1012.3
2023-05-19T05:08:37.677Z,1012.2
2023-05-19T05:09:38.657Z,1012.2
2023-05-19T05:10:39.669Z,1012.2
2023-05-19T05:11:40.696Z,1012.3
2023-05-19T05:12:41.612Z,1012.3
2023-05-19T05:13:42.595Z,1012.2
2023-05-19T05:14:43.655Z,1012.2
2023-05-19T05:15:44.697Z,1012.3
2023-05-19T05:16:45.791Z,1012.3
2023-05-19T05:17:46.701Z,1012.3
2023-05-19T05:18:47.703Z,1012.3
2023-05-19T05:19:48.658Z,1012.3
2023-05-19T05:20:49.695Z,1012.3
2023-05-19T05:21:51.189Z,1012.4
2023-05-19T05:22:51.668Z,1012.4
2023-05-19T05:23:52.631Z,1012.3
2023-05-19T05:24:53.679Z,1012.3
2023-05-19T05:25:54.697Z,1012.3
2023-05-19T05:26:55.604Z,1012.3
2023-05-19T05:29:02.734Z,1012.3
2023-05-19T05:30:03.812Z,1012.3
2023-05-19T05:31:04.623Z,1012.4
2023-05-19T05:32:05.700Z,1012.4
2023-05-19T05:33:06.795Z,1012.3
2023-05-19T05:34:07.643Z,1012.3
2023-05-19T05:35:08.682Z,1012.3
2023-05-19T05:36:09.655Z,1012.3
2023-05-19T05:37:11.370Z,1012.3
2023-05-19T05:38:11.698Z,1012.4
2023-05-19T05:39:12.633Z,1012.3
2023-05-19T05:40:13.633Z,1012.3
2023-05-19T05:41:14.722Z,1012.2
2023-05-19T05:42:15.692Z,1012.2
2023-05-19T05:43:16.701Z,1012.2
2023-05-19T05:44:17.661Z,1012.2
2023-05-19T05:45:18.700Z,1012.3
2023-05-19T05:46:19.662Z,1012.2
2023-05-19T05:47:20.674Z,1012.3
2023-05-19T05:48:21.615Z,1012
2023-05-19T05:49:22.655Z,1012.2
2023-05-19T05:50:23.628Z,1012.3
2023-05-19T05:51:24.847Z,1012.2
2023-05-19T05:52:25.655Z,1012.3
2023-05-19T05:53:26.724Z,1012.3
2023-05-19T05:54:27.600Z,1012.3
2023-05-19T05:55:28.665Z,1012.2
2023-05-19T05:56:29.639Z,1012.2
2023-05-19T05:57:30.704Z,1012.3
2023-05-19T05:58:31.701Z,1012.2
2023-05-19T05:59:32.658Z,1012.1
2023-05-19T06:00:33.916Z,1012.2
2023-05-19T06:01:35.560Z,1012.2
2023-05-19T06:02:35.917Z,1012.2
2023-05-19T06:03:36.634Z,1012.2
2023-05-19T06:04:37.704Z,1012.2
2023-05-19T06:05:38.810Z,1012.2
2023-05-19T06:06:39.612Z,1012.2
2023-05-19T06:07:40.661Z,1012.3
2023-05-19T06:08:41.692Z,1012.3
2023-05-19T06:09:42.657Z,1012.3
2023-05-19T06:10:45.777Z,1012.4
2023-05-19T06:11:44.700Z,1012.3
2023-05-19T06:12:45.730Z,1012.4
2023-05-19T06:13:46.750Z,1012.4
2023-05-19T06:14:47.669Z,1012.4
2023-05-19T06:15:48.698Z,1012.4
2023-05-19T06:16:49.692Z,1012.4
2023-05-19T06:17:50.833Z,1012.4
2023-05-19T06:18:51.756Z,1012.4
2023-05-19T06:19:52.662Z,1012.5
2023-05-19T06:20:53.651Z,1012.4
2023-05-19T06:21:54.718Z,1012.4
2023-05-19T06:22:55.710Z,1012.5
2023-05-19T06:23:56.681Z,1012.5
2023-05-19T06:24:57.676Z,1012.2
2023-05-19T06:25:58.713Z,1012.4
2023-05-19T06:27:00.727Z,1012.4
2023-05-19T06:28:01.688Z,1012.5
2023-05-19T06:29:02.652Z,1012.5
2023-05-19T06:30:03.710Z,1012.5
2023-05-19T06:31:04.788Z,1012.5
2023-05-19T06:32:05.783Z,1012.5
2023-05-19T06:33:06.723Z,1012.5
2023-05-19T06:34:07.706Z,1012.5
2023-05-19T06:35:08.683Z,1012.5
2023-05-19T06:36:09.683Z,1012.5
2023-05-19T06:37:10.748Z,1012.5
2023-05-19T06:38:11.682Z,1012.5
2023-05-19T06:39:12.744Z,1012.5
2023-05-19T06:40:13.720Z,1012.5
2023-05-19T06:41:14.768Z,1012.4
2023-05-19T06:42:15.770Z,1012.5
2023-05-19T06:43:16.700Z,1012.5
2023-05-19T06:44:19.290Z,1012.4
2023-05-19T06:45:18.686Z,1012.5
2023-05-19T06:46:19.673Z,1012.5
2023-05-19T06:47:20.803Z,1012.4
2023-05-19T06:48:21.677Z,1012.4
2023-05-19T06:49:22.707Z,1012.5
2023-05-19T06:50:23.708Z,1012.5
2023-05-19T06:51:24.722Z,1012.5
2023-05-19T06:52:25.702Z,1012.5
2023-05-19T06:53:26.666Z,1012.5
2023-05-19T06:54:27.680Z,1012.2
2023-05-19T06:55:28.668Z,1012.5
2023-05-19T06:56:29.729Z,1012.5
2023-05-19T06:57:30.888Z,1012.5
2023-05-19T06:58:31.726Z,1012.5
2023-05-19T06:59:32.740Z,1012.5
2023-05-19T07:00:33.842Z,1012.5
2023-05-19T07:01:34.761Z,1012.5
2023-05-19T07:02:36.048Z,1012.5
2023-05-19T07:03:37.774Z,1012.6
2023-05-19T07:04:38.720Z,1012.6
2023-05-19T07:05:39.682Z,1012.6
2023-05-19T07:06:40.681Z,1012.6
2023-05-19T07:07:41.745Z,1012.5
2023-05-19T07:08:42.700Z,1012.6
2023-05-19T07:09:43.801Z,1012.6
2023-05-19T07:10:44.743Z,1012.5
2023-05-19T07:11:45.763Z,1012.6
2023-05-19T07:12:46.749Z,1012.6
2023-05-19T07:13:47.697Z,1012.6
2023-05-19T07:14:48.818Z,1012.3
2023-05-19T07:15:49.661Z,1012.5
2023-05-19T07:16:50.834Z,1012.5
2023-05-19T07:17:51.729Z,1012.6
2023-05-19T07:18:52.723Z,1012.6
2023-05-19T07:19:53.725Z,1012.7
2023-05-19T07:20:54.667Z,1012.6
2023-05-19T07:21:55.661Z,1012.6
2023-05-19T07:22:56.782Z,1012.6
2023-05-19T07:23:57.726Z,1012.6
2023-05-19T07:24:58.662Z,1012.6
2023-05-19T07:25:59.707Z,1012.6
2023-05-19T07:27:00.718Z,1012.7
2023-05-19T07:28:01.853Z,1012.6
2023-05-19T07:29:02.705Z,1012.6
2023-05-19T07:30:03.741Z,1012.6
2023-05-19T07:31:04.724Z,1012.6
2023-05-19T07:32:05.722Z,1012.7
2023-05-19T07:33:06.751Z,1012.6
2023-05-19T07:34:07.723Z,1012.7
2023-05-19T07:35:08.710Z,1012.7
2023-05-19T07:36:09.661Z,1012.6
2023-05-19T07:37:10.764Z,1012.7
2023-05-19T07:38:11.763Z,1012.6
2023-05-19T07:39:12.706Z,1012.6
2023-05-19T07:40:13.701Z,1012.6
2023-05-19T07:41:14.691Z,1012.6
2023-05-19T07:42:15.678Z,1012.6
2023-05-19T07:43:16.851Z,1012.6
2023-05-19T07:44:17.777Z,1012.6
2023-05-19T07:45:18.678Z,1012.6
2023-05-19T07:46:19.822Z,1012.7
2023-05-19T07:47:20.774Z,1012.6
2023-05-19T07:48:21.806Z,1012.5
2023-05-19T07:49:22.696Z,1012.6
2023-05-19T07:50:23.754Z,1012.6
2023-05-19T07:51:24.724Z,1012.6
2023-05-19T07:52:25.776Z,1012.6
2023-05-19T07:53:27.376Z,1012.6
2023-05-19T07:54:28.747Z,1012.6
2023-05-19T07:55:29.784Z,1012.6
2023-05-19T07:56:30.718Z,1012.6
2023-05-19T07:57:31.758Z,1012.6
2023-05-19T07:58:32.799Z,1012.6
2023-05-19T07:59:33.776Z,1012.7
2023-05-19T08:00:34.976Z,1012.6
2023-05-19T08:01:35.796Z,1012.6
2023-05-19T08:02:36.827Z,1012.6
2023-05-19T08:03:37.892Z,1012.4
2023-05-19T08:04:38.799Z,1012.5
2023-05-19T08:05:39.715Z,1012.6
2023-05-19T08:06:40.756Z,1012.6
2023-05-19T08:07:41.739Z,1012.7
2023-05-19T08:08:42.766Z,1012.6
2023-05-19T08:09:43.713Z,1012.6
2023-05-19T08:10:44.775Z,1012.6
2023-05-19T08:11:45.782Z,1012.6
2023-05-19T08:12:46.784Z,1012.6
2023-05-19T08:13:47.734Z,1012.6
2023-05-19T08:14:48.830Z,1012.6
2023-05-19T08:15:49.751Z,1012.6
2023-05-19T08:16:50.737Z,1012.6
2023-05-19T08:17:51.796Z,1012.6
2023-05-19T08:18:52.841Z,1012.6
2023-05-19T08:19:53.796Z,1012.6
2023-05-19T08:20:54.802Z,1012.6
2023-05-19T08:21:55.758Z,1012.6
2023-05-19T08:22:56.739Z,1012.6
2023-05-19T08:23:57.726Z,1012.6
2023-05-19T08:24:58.770Z,1012.6
2023-05-19T08:25:59.812Z,1012.6
2023-05-19T08:27:00.733Z,1012.6
2023-05-19T08:28:01.782Z,1012.6
2023-05-19T08:29:02.879Z,1012.6
2023-05-19T08:30:03.764Z,1012.6
2023-05-19T08:31:04.761Z,1012.6
2023-05-19T08:32:05.778Z,1012.6
2023-05-19T08:33:06.781Z,1012.5
2023-05-19T08:34:07.753Z,1012.6
2023-05-19T08:35:08.764Z,1012.5
2023-05-19T08:36:09.814Z,1012.5
2023-05-19T08:37:11.749Z,1012.5
2023-05-19T08:38:12.741Z,1012.5
2023-05-19T08:39:13.730Z,1012.5
2023-05-19T08:40:14.724Z,1012.5
2023-05-19T08:41:15.741Z,1012.5
2023-05-19T08:42:16.780Z,1012.5
2023-05-19T08:43:17.785Z,1012.6
2023-05-19T08:44:19.170Z,1012.5
2023-05-19T08:45:19.781Z,1012.5
2023-05-19T08:46:20.772Z,1012.6
2023-05-19T08:47:21.722Z,1012.5
2023-05-19T08:48:22.798Z,1012.6
2023-05-19T08:49:25.560Z,1012.5
2023-05-19T08:50:24.804Z,1012.6
2023-05-19T08:51:25.775Z,1012.6
2023-05-19T08:52:26.762Z,1012.5
2023-05-19T08:53:33.643Z,1012.5
2023-05-19T08:54:28.762Z,1012.5
2023-05-19T08:55:29.908Z,1012.5
2023-05-19T08:56:30.724Z,1012.5
2023-05-19T08:57:31.758Z,1012.5
2023-05-19T08:58:32.717Z,1012.2
2023-05-19T08:59:33.823Z,1012.4
2023-05-19T09:00:35.284Z,1012.5
2023-05-19T09:02:36.916Z,1012.5
2023-05-19T09:03:37.852Z,1012.5
2023-05-19T09:04:38.771Z,1012.5
2023-05-19T09:05:39.759Z,1012.5
2023-05-19T09:06:40.763Z,1012.5
2023-05-19T09:07:41.738Z,1012.5
2023-05-19T09:08:42.714Z,1012.4
2023-05-19T09:09:44.114Z,1012.5
2023-05-19T09:10:44.777Z,1012.5
2023-05-19T09:11:45.818Z,1012.5
2023-05-19T09:12:46.748Z,1012.5
2023-05-19T09:13:47.735Z,1012.5
2023-05-19T09:14:48.872Z,1012.5
2023-05-19T09:15:49.799Z,1012.3
2023-05-19T09:16:50.775Z,1012.4
2023-05-19T09:17:51.842Z,1012.4
2023-05-19T09:18:52.805Z,1012.5
2023-05-19T09:19:53.776Z,1012.5
2023-05-19T09:20:54.817Z,1012.5
2023-05-19T09:21:55.788Z,1012
2023-05-19T09:22:56.798Z,1012.4
2023-05-19T09:23:57.815Z,1012.4
2023-05-19T09:24:58.779Z,1012.4
2023-05-19T09:25:59.762Z,1012.4
2023-05-19T09:27:00.810Z,1012.4
2023-05-19T09:28:01.800Z,1012.4
2023-05-19T09:29:02.756Z,1012.4
2023-05-19T09:30:03.914Z,1012.4
2023-05-19T09:31:04.790Z,1012.4
2023-05-19T09:32:05.792Z,1012.4
2023-05-19T09:33:06.872Z,1012.4
2023-05-19T09:34:07.816Z,1012.3
2023-05-19T09:35:08.748Z,1012.3
2023-05-19T09:36:09.742Z,1012.4
2023-05-19T09:37:10.771Z,1012.4
2023-05-19T09:38:11.816Z,1012.3
2023-05-19T09:39:12.799Z,1012.3
2023-05-19T09:40:13.789Z,1012.3
2023-05-19T09:41:14.727Z,1012.3
2023-05-19T09:42:15.856Z,1012.3
2023-05-19T09:43:16.801Z,1012.3
2023-05-19T09:44:17.777Z,1012.3
2023-05-19T09:45:18.853Z,1012.3
2023-05-19T09:46:19.848Z,1012.3
2023-05-19T09:47:20.860Z,1012.3
2023-05-19T09:48:21.783Z,1012.3
2023-05-19T09:49:22.861Z,1012.3
2023-05-19T09:50:23.838Z,1012.3
2023-05-19T09:51:24.817Z,1012.3
2023-05-19T09:52:25.865Z,1012.3
2023-05-19T09:53:26.814Z,1012.3
2023-05-19T09:54:27.857Z,1012.3
2023-05-19T09:55:28.851Z,1012.3
2023-05-19T09:56:29.822Z,1012.2
2023-05-19T09:57:30.796Z,1012.2
2023-05-19T09:58:31.801Z,1012.2
2023-05-19T09:59:33.930Z,1012.2
2023-05-19T10:00:34.188Z,1012.2
2023-05-19T10:01:34.842Z,1012.2
2023-05-19T10:02:35.863Z,1012.2
2023-05-19T10:03:36.953Z,1012.1
2023-05-19T10:04:37.851Z,1012.1
2023-05-19T10:05:38.827Z,1012.1
2023-05-19T10:06:39.798Z,1012.1
2023-05-19T10:07:40.833Z,1012
2023-05-19T10:08:41.824Z,1012
2023-05-19T10:09:42.819Z,1012
2023-05-19T10:10:43.817Z,1011.6
2023-05-19T10:11:44.824Z,1011.9
2023-05-19T10:12:45.836Z,1012
2023-05-19T10:13:46.846Z,1012
2023-05-19T10:14:47.798Z,1012
2023-05-19T10:15:57.870Z,1012
2023-05-19T10:16:49.914Z,1011.9
2023-05-19T10:17:50.883Z,1011.9
2023-05-19T10:18:51.845Z,1012
2023-05-19T10:19:52.805Z,1012
2023-05-19T10:20:53.874Z,1012
2023-05-19T10:21:54.837Z,1012
2023-05-19T10:22:55.820Z,1012
2023-05-19T10:23:56.819Z,1012
2023-05-19T10:24:57.905Z,1012
2023-05-19T10:25:58.877Z,1012
2023-05-19T10:26:59.912Z,1012
2023-05-19T10:28:00.924Z,1011.5
2023-05-19T10:29:01.855Z,1011.9
2023-05-19T10:30:02.857Z,1011.9
2023-05-19T10:31:03.941Z,1012
2023-05-19T10:32:04.897Z,1012.1
2023-05-19T10:33:05.906Z,1012
2023-05-19T10:34:06.854Z,1012
2023-05-19T10:35:07.817Z,1012.1
2023-05-19T10:36:08.825Z,1012
2023-05-19T10:37:09.817Z,1012
2023-05-19T10:38:10.845Z,1012
2023-05-19T10:39:11.862Z,1012
2023-05-19T10:40:12.823Z,1012
2023-05-19T10:41:13.842Z,1012
2023-05-19T10:42:14.770Z,1012
2023-05-19T10:43:15.897Z,1012
2023-05-19T10:44:16.878Z,1012
2023-05-19T10:45:17.817Z,1011.6
2023-05-19T10:46:18.848Z,1012
2023-05-19T10:47:19.812Z,1012
2023-05-19T10:48:20.899Z,1012
2023-05-19T10:49:21.858Z,1012
2023-05-19T10:50:22.783Z,1012
2023-05-19T10:51:23.818Z,1012
2023-05-19T10:52:24.810Z,1012.1
2023-05-19T10:53:26.178Z,1012.1
2023-05-19T10:54:27.864Z,1012
2023-05-19T10:55:28.817Z,1012.1
2023-05-19T10:56:29.881Z,1012
2023-05-19T10:57:30.881Z,1012.1
2023-05-19T10:58:31.883Z,1012.1
2023-05-19T10:59:32.907Z,1012.1
2023-05-19T11:00:33.902Z,1012.1
2023-05-19T11:01:34.951Z,1012.1
2023-05-19T11:02:36.621Z,1012.1
2023-05-19T11:03:37.918Z,1012.1
2023-05-19T11:04:38.848Z,1012.1
2023-05-19T11:05:39.881Z,1012.2
2023-05-19T11:06:40.880Z,1012.1
2023-05-19T11:07:41.901Z,1012.1
2023-05-19T11:08:42.871Z,1012.1
2023-05-19T11:09:43.841Z,1012.1
2023-05-19T11:10:44.805Z,1012.1
2023-05-19T11:11:45.880Z,1012.1
2023-05-19T11:12:46.969Z,1012.1
2023-05-19T11:13:47.894Z,1012.1
2023-05-19T11:14:48.828Z,1012.1
2023-05-19T11:15:49.851Z,1012.1
2023-05-19T11:16:50.932Z,1012
2023-05-19T11:17:51.907Z,1012.1
2023-05-19T11:18:52.903Z,1012.1
2023-05-19T11:19:53.887Z,1012.1
2023-05-19T11:20:54.841Z,1012.1
2023-05-19T11:21:55.856Z,1012
2023-05-19T11:22:56.916Z,1012
2023-05-19T11:23:57.971Z,1012.1
2023-05-19T11:24:58.919Z,1012
2023-05-19T11:25:59.920Z,1012
2023-05-19T11:27:00.882Z,1012
2023-05-19T11:28:01.857Z,1012
2023-05-19T11:29:02.892Z,1012
2023-05-19T11:30:03.867Z,1012
2023-05-19T11:31:04.865Z,1012.1
2023-05-19T11:32:05.889Z,1012.1
2023-05-19T11:33:06.922Z,1012.1
2023-05-19T11:34:07.859Z,1012.1
2023-05-19T11:35:08.811Z,1012
2023-05-19T11:36:09.902Z,1011.9
2023-05-19T11:37:10.840Z,1012
2023-05-19T11:38:11.914Z,1012.1
2023-05-19T11:39:12.841Z,1012.1
2023-05-19T11:40:13.990Z,1012
2023-05-19T11:41:14.838Z,1012
2023-05-19T11:42:15.839Z,1012.1
2023-05-19T11:43:16.888Z,1012
2023-05-19T11:44:17.864Z,1012.1
2023-05-19T11:45:18.865Z,1012
2023-05-19T11:46:19.837Z,1012.1
2023-05-19T11:47:20.989Z,1012.1
2023-05-19T11:48:21.950Z,1012.1
2023-05-19T11:49:22.919Z,1012.1
2023-05-19T11:50:23.884Z,1012.1
2023-05-19T11:51:24.939Z,1012.1
2023-05-19T11:52:25.907Z,1012.1
2023-05-19T11:53:26.857Z,1012.1
2023-05-19T11:54:27.859Z,1012.1
2023-05-19T11:55:28.874Z,1012.2
2023-05-19T11:56:29.902Z,1012.2
2023-05-19T11:57:30.923Z,1012.1
2023-05-19T11:58:31.898Z,1012.1
2023-05-19T11:59:34.906Z,1012.1
2023-05-19T12:00:33.843Z,1012.1
2023-05-19T12:01:34.861Z,1012.1
2023-05-19T12:02:35.998Z,1012.2
2023-05-19T12:03:37.238Z,1012.1
2023-05-19T12:04:37.945Z,1012.1
2023-05-19T12:05:42.187Z,1012.1
2023-05-19T12:06:39.935Z,1012.1
2023-05-19T12:07:40.875Z,1012.1
2023-05-19T12:08:41.996Z,1012.1
2023-05-19T12:09:42.840Z,1012.1
2023-05-19T12:10:43.936Z,1012.1
2023-05-19T12:11:44.999Z,1012.1
2023-05-19T12:12:45.935Z,1012.1
2023-05-19T12:13:46.932Z,1012.1
2023-05-19T12:14:47.881Z,1012.1
2023-05-19T12:15:48.893Z,1012.1
2023-05-19T12:16:49.954Z,1012
2023-05-19T12:17:50.967Z,1012
2023-05-19T12:18:51.976Z,1012
2023-05-19T12:19:52.885Z,1012
2023-05-19T12:20:53.897Z,1012
2023-05-19T12:21:54.923Z,1012
2023-05-19T12:22:55.905Z,1012
2023-05-19T12:23:56.863Z,1012
2023-05-19T12:24:58.015Z,1012.1
2023-05-19T12:25:58.916Z,1012.1
2023-05-19T12:26:59.849Z,1012
2023-05-19T12:28:00.859Z,1012.1
2023-05-19T12:29:01.907Z,1012
2023-05-19T12:30:02.958Z,1012
2023-05-19T12:31:03.906Z,1012.1
2023-05-19T12:32:04.996Z,1012
2023-05-19T12:33:05.922Z,1012.1
2023-05-19T12:34:06.930Z,1012
2023-05-19T12:35:07.918Z,1012.1
2023-05-19T12:36:08.840Z,1012.1
2023-05-19T12:37:09.861Z,1012.1
2023-05-19T12:38:10.868Z,1012.1
2023-05-19T12:39:12.021Z,1012
2023-05-19T12:40:12.931Z,1012.1
2023-05-19T12:41:13.868Z,1012
2023-05-19T12:42:14.930Z,1012
2023-05-19T12:43:15.928Z,1012.1
2023-05-19T12:44:16.945Z,1012.1
2023-05-19T12:45:17.879Z,1012.1
2023-05-19T12:46:18.962Z,1012.1
2023-05-19T12:47:19.918Z,1012.1
2023-05-19T12:48:21.067Z,1012.2
2023-05-19T12:49:21.937Z,1012.1
2023-05-19T12:50:22.894Z,1012.1
2023-05-19T12:51:23.993Z,1012.1
2023-05-19T12:52:24.860Z,1012.1
2023-05-19T12:53:25.880Z,1012.1